Cape Neddick, Maine
Current Conditions -  °F | °C
As of 4:58 PM on Wednesday 28 Jan 2015 (Local Time) from KPSM Reporting Station
Few Clouds Few Clouds  
Wind Chill: 10°   Ceiling: Unl
Heat Index: 22°   Visibility: 10mi
Dew Point:   Wind: 12mph
Humidity: 55%   Direction: 290°WNW
Pressure: 30.02"   Gusts: NA
Location:  43.17°N, 70.62°W
Report Text: KPSM 282158Z 29010KT 10SM FEW150 M06/M13 A3002 RMK AO2A SLP171 T10571135
Loading
Personal Weather Stations






























Interactive Weather Map New forecast layout! Learn more

10-Day Weather Forecast

Advertisements
Track Severe Weather on mobile